WXForecasting.com
 BROWN COUNTY, SD  -  Wind Advisory Wind Advisory  
Aberdeen, SD - Weather Station Data
Daily Summary for October 11, 2017 Units:  English    Metric   Both
« Previous Day
Next Day »
Daily Weekly Monthly Yearly Custom
  High: Low: Average:
Temperature: 64.4 °F 35.2 °F 48.7 °F
Dew Point: 37.0 °F 29.0 °F 32.9 °F
Humidity: 80 % 34 % 58 %
Wind Speed: 14.0 mph 0.0 mph 3.9 mph
Wind Gust: 23.0 mph - -
Wind:- - SSE
Pressure: 30.22 in 29.90 in -
Precipitation: 0.00 in    
Historical Graphs
 
 
Tabular Data for October 11, 2017
Time Temperature Dew Point Pressure Wind Wind Speed Wind Gust Humidity Rainfall Rate (Hourly) solar Conditions
00:03 38.0 °F 29.0 °F 30.22 in Calm   3.0 mph 71 % 0.00 in 0 W/m2
00:33 37.3 °F 29.0 °F 30.21 in SE 2.0 mph 5.0 mph 73 % 0.00 in 0 W/m2
00:48 36.9 °F 29.0 °F 30.21 in SE 2.0 mph 3.0 mph 73 % 0.00 in 0 W/m2
01:03 36.4 °F 29.0 °F 30.21 in Calm   4.0 mph 74 % 0.00 in 0 W/m2
01:18 36.4 °F 29.0 °F 30.21 in SE 1.0 mph 7.0 mph 75 % 0.00 in 0 W/m2
01:33 36.1 °F 29.0 °F 30.21 in Calm   1.0 mph 75 % 0.00 in 0 W/m2
01:48 35.9 °F 29.0 °F 30.20 in Calm   2.0 mph 75 % 0.00 in 0 W/m2
02:03 35.9 °F 29.0 °F 30.21 in SE 1.0 mph 3.0 mph 76 % 0.00 in 0 W/m2
02:18 35.8 °F 29.0 °F 30.20 in SE 1.0 mph 6.0 mph 76 % 0.00 in 0 W/m2
02:33 35.9 °F 29.0 °F 30.21 in Calm   7.0 mph 77 % 0.00 in 0 W/m2
02:48 36.3 °F 29.0 °F 30.21 in SE 1.0 mph 8.0 mph 76 % 0.00 in 0 W/m2
03:18 36.5 °F 30.0 °F 30.20 in ESE 1.0 mph 6.0 mph 76 % 0.00 in 0 W/m2
03:33 36.3 °F 30.0 °F 30.19 in Calm   7.0 mph 77 % 0.00 in 0 W/m2
03:48 36.0 °F 29.0 °F 30.19 in SE 2.0 mph 3.0 mph 77 % 0.00 in 0 W/m2
04:03 35.8 °F 30.0 °F 30.19 in Calm   4.0 mph 78 % 0.00 in 0 W/m2
04:18 35.8 °F 30.0 °F 30.18 in SSE 2.0 mph 5.0 mph 78 % 0.00 in 0 W/m2
04:33 35.7 °F 29.0 °F 30.18 in Calm   5.0 mph 78 % 0.00 in 0 W/m2
04:48 35.6 °F 30.0 °F 30.18 in SSE 1.0 mph 6.0 mph 79 % 0.00 in 0 W/m2
05:03 35.3 °F 29.0 °F 30.18 in Calm   9.0 mph 79 % 0.00 in 0 W/m2
05:18 35.2 °F 29.0 °F 30.17 in SE 4.0 mph 8.0 mph 79 % 0.00 in 0 W/m2
05:33 35.3 °F 29.0 °F 30.16 in SE 3.0 mph 8.0 mph 79 % 0.00 in 0 W/m2
05:48 35.6 °F 30.0 °F 30.15 in SE 2.0 mph 5.0 mph 79 % 0.00 in 0 W/m2
06:03 35.7 °F 30.0 °F 30.16 in Calm   10.0 mph 79 % 0.00 in 0 W/m2
06:18 35.7 °F 30.0 °F 30.15 in Calm   5.0 mph 79 % 0.00 in 0 W/m2
06:33 35.7 °F 30.0 °F 30.15 in Calm   7.0 mph 79 % 0.00 in 0 W/m2
06:48 35.4 °F 30.0 °F 30.15 in SE 1.0 mph 5.0 mph 79 % 0.00 in 0 W/m2
07:04 35.2 °F 30.0 °F 30.15 in SSE 1.0 mph 8.0 mph 80 % 0.00 in 0 W/m2
07:18 35.4 °F 30.0 °F 30.15 in SE 1.0 mph 4.0 mph 80 % 0.00 in 0 W/m2
07:34 35.6 °F 30.0 °F 30.13 in SE 2.0 mph 7.0 mph 80 % 0.00 in 0 W/m2
08:04 35.8 °F 30.0 °F 30.13 in SE 3.0 mph 4.0 mph 80 % 0.00 in 21 W/m2
08:19 36.0 °F 30.0 °F 30.14 in Calm   8.0 mph 79 % 0.00 in 44 W/m2
08:34 36.5 °F 31.0 °F 30.13 in South 1.0 mph 6.0 mph 79 % 0.00 in 56 W/m2
08:49 37.2 °F 31.0 °F 30.13 in SE 3.0 mph 10.0 mph 79 % 0.00 in 134 W/m2
09:04 38.3 °F 31.0 °F 30.13 in South 1.0 mph 9.0 mph 76 % 0.00 in 63 W/m2
09:19 38.4 °F 31.0 °F 30.12 in SSE 4.0 mph 7.0 mph 76 % 0.00 in 90 W/m2
09:34 40.6 °F 33.0 °F 30.12 in Calm   8.0 mph 74 % 0.00 in 274 W/m2
09:49 43.2 °F 34.0 °F 30.12 in SSE 3.0 mph 11.0 mph 69 % 0.00 in 315 W/m2
10:04 45.3 °F 34.0 °F 30.11 in SE 11.0 mph 17.0 mph 65 % 0.00 in 353 W/m2
10:19 46.7 °F 35.0 °F 30.11 in SE 5.0 mph 12.0 mph 64 % 0.00 in 388 W/m2
10:34 48.5 °F 35.0 °F 30.10 in SE 6.0 mph 16.0 mph 60 % 0.00 in 422 W/m2
10:49 49.6 °F 35.0 °F 30.09 in SSE 9.0 mph 15.0 mph 57 % 0.00 in 455 W/m2
11:04 51.2 °F 35.0 °F 30.09 in SSE 4.0 mph 17.0 mph 54 % 0.00 in 485 W/m2
11:20 52.1 °F 35.0 °F 30.08 in South 2.0 mph 16.0 mph 53 % 0.00 in 508 W/m2
11:34 53.8 °F 35.0 °F 30.08 in SSE 14.0 mph 15.0 mph 49 % 0.00 in 540 W/m2
11:50 55.4 °F 36.0 °F 30.07 in SSE 10.0 mph 13.0 mph 48 % 0.00 in 540 W/m2
12:05 56.9 °F 37.0 °F 30.06 in ESE 10.0 mph 14.0 mph 47 % 0.00 in 582 W/m2
12:20 57.8 °F 34.0 °F 30.05 in South 6.0 mph 15.0 mph 41 % 0.00 in 610 W/m2
12:35 58.4 °F 35.0 °F 30.05 in SE 5.0 mph 20.0 mph 41 % 0.00 in 550 W/m2
12:50 59.9 °F 35.0 °F 30.04 in East 10.0 mph 16.0 mph 39 % 0.00 in 594 W/m2
13:05 60.7 °F 35.0 °F 30.02 in South 6.0 mph 17.0 mph 38 % 0.00 in 610 W/m2
13:20 61.7 °F 34.0 °F 30.02 in South 14.0 mph 18.0 mph 36 % 0.00 in 612 W/m2
13:35 62.3 °F 34.0 °F 30.01 in South 7.0 mph 23.0 mph 35 % 0.00 in 585 W/m2
13:51 62.3 °F 33.0 °F 30.01 in SE 3.0 mph 19.0 mph 34 % 0.00 in 413 W/m2
14:05 63.0 °F 34.0 °F 30.00 in SW 6.0 mph 20.0 mph 34 % 0.00 in 596 W/m2
14:20 63.2 °F 35.0 °F 29.99 in SSE 4.0 mph 17.0 mph 35 % 0.00 in 552 W/m2
14:35 63.6 °F 35.0 °F 29.98 in SSE 5.0 mph 19.0 mph 35 % 0.00 in 519 W/m2
14:50 63.1 °F 35.0 °F 29.98 in SE 8.0 mph 19.0 mph 35 % 0.00 in 334 W/m2
15:05 63.9 °F 36.0 °F 29.96 in ESE 12.0 mph 21.0 mph 35 % 0.00 in 369 W/m2
15:20 63.4 °F 35.0 °F 29.96 in SW 7.0 mph 17.0 mph 35 % 0.00 in 343 W/m2
15:50 63.6 °F 36.0 °F 29.94 in SE 12.0 mph 19.0 mph 36 % 0.00 in 374 W/m2
16:05 63.5 °F 35.0 °F 29.94 in SE 3.0 mph 20.0 mph 35 % 0.00 in 397 W/m2
16:20 63.9 °F 36.0 °F 29.93 in SSE 14.0 mph 19.0 mph 36 % 0.00 in 283 W/m2
16:35 63.8 °F 37.0 °F 29.93 in South 4.0 mph 20.0 mph 37 % 0.00 in 308 W/m2
16:50 64.4 °F 37.0 °F 29.93 in SE 8.0 mph 19.0 mph 36 % 0.00 in 339 W/m2
17:05 64.0 °F 36.0 °F 29.93 in South 6.0 mph 23.0 mph 35 % 0.00 in 283 W/m2
17:20 63.1 °F 36.0 °F 29.94 in SSE 1.0 mph 15.0 mph 37 % 0.00 in 76 W/m2
17:36 61.4 °F 36.0 °F 29.94 in SSW 5.0 mph 15.0 mph 39 % 0.00 in 54 W/m2
17:50 60.8 °F 35.0 °F 29.94 in South 4.0 mph 15.0 mph 39 % 0.00 in 88 W/m2
18:05 60.8 °F 35.0 °F 29.93 in South 4.0 mph 13.0 mph 39 % 0.00 in 63 W/m2
18:20 60.1 °F 36.0 °F 29.93 in ESE 3.0 mph 11.0 mph 40 % 0.00 in 33 W/m2
18:35 59.3 °F 35.0 °F 29.93 in SSE 4.0 mph 10.0 mph 41 % 0.00 in 19 W/m2
18:50 58.8 °F 36.0 °F 29.93 in SSE 4.0 mph 11.0 mph 43 % 0.00 in 5 W/m2
19:05 58.1 °F 35.0 °F 29.93 in SSE 3.0 mph 10.0 mph 43 % 0.00 in 0 W/m2
19:36 56.5 °F 35.0 °F 29.94 in SE 3.0 mph 11.0 mph 44 % 0.00 in 0 W/m2
19:50 55.5 °F 34.0 °F 29.94 in ESE 10.0 mph 11.0 mph 45 % 0.00 in 0 W/m2
20:05 54.9 °F 34.0 °F 29.94 in SE 1.0 mph 12.0 mph 46 % 0.00 in 0 W/m2
20:21 54.2 °F 34.0 °F 29.94 in SE 4.0 mph 8.0 mph 47 % 0.00 in 0 W/m2
20:36 53.7 °F 34.0 °F 29.94 in SSW 4.0 mph 8.0 mph 48 % 0.00 in 0 W/m2
20:50 53.5 °F 34.0 °F 29.93 in SSE 6.0 mph 11.0 mph 48 % 0.00 in 0 W/m2
21:06 53.2 °F 34.0 °F 29.93 in SE 4.0 mph 12.0 mph 49 % 0.00 in 0 W/m2
21:20 52.6 °F 34.0 °F 29.93 in SSE 2.0 mph 11.0 mph 50 % 0.00 in 0 W/m2
21:36 52.2 °F 34.0 °F 29.93 in SSE 4.0 mph 11.0 mph 51 % 0.00 in 0 W/m2
21:50 52.1 °F 34.0 °F 29.92 in SSE 6.0 mph 10.0 mph 51 % 0.00 in 0 W/m2
22:06 51.9 °F 35.0 °F 29.92 in SE 3.0 mph 12.0 mph 52 % 0.00 in 0 W/m2
22:21 52.1 °F 35.0 °F 29.92 in South 7.0 mph 12.0 mph 53 % 0.00 in 0 W/m2
22:51 52.3 °F 35.0 °F 29.91 in South 4.0 mph 10.0 mph 53 % 0.00 in 0 W/m2
23:06 52.7 °F 36.0 °F 29.92 in South 3.0 mph 14.0 mph 53 % 0.00 in 0 W/m2
23:21 52.8 °F 36.0 °F 29.91 in SSE 5.0 mph 11.0 mph 53 % 0.00 in 0 W/m2
23:36 52.8 °F 36.0 °F 29.90 in South 3.0 mph 18.0 mph 54 % 0.00 in 0 W/m2
23:51 52.2 °F 36.0 °F 29.90 in South 2.0 mph 14.0 mph 55 % 0.00 in 0 W/m2
Compliments of Weather Underground - 1 mb